sensor_id;sensor_type;location;lat;lon;timestamp;P1;durP1;ratioP1;P2;durP2;ratioP2
44068;SDS011;29738;51.234;5.484;2023-04-03T00:01:38;7.85;;;4.97;;
44068;SDS011;29738;51.234;5.484;2023-04-03T00:04:04;10.32;;;6.10;;
44068;SDS011;29738;51.234;5.484;2023-04-03T00:06:31;8.85;;;5.13;;
44068;SDS011;29738;51.234;5.484;2023-04-03T00:08:57;9.85;;;5.40;;
44068;SDS011;29738;51.234;5.484;2023-04-03T00:11:23;8.48;;;4.68;;
44068;SDS011;29738;51.234;5.484;2023-04-03T00:13:50;9.77;;;5.28;;
44068;SDS011;29738;51.234;5.484;2023-04-03T00:16:17;9.13;;;5.40;;
44068;SDS011;29738;51.234;5.484;2023-04-03T00:18:43;8.27;;;4.88;;
44068;SDS011;29738;51.234;5.484;2023-04-03T00:21:09;10.00;;;5.10;;
44068;SDS011;29738;51.234;5.484;2023-04-03T00:23:38;8.60;;;4.80;;
44068;SDS011;29738;51.234;5.484;2023-04-03T00:26:04;11.38;;;4.97;;
44068;SDS011;29738;51.234;5.484;2023-04-03T00:28:30;8.60;;;5.10;;
44068;SDS011;29738;51.234;5.484;2023-04-03T00:30:56;10.00;;;5.70;;
44068;SDS011;29738;51.234;5.484;2023-04-03T00:33:22;11.32;;;4.80;;
44068;SDS011;29738;51.234;5.484;2023-04-03T00:35:49;14.80;;;5.25;;
44068;SDS011;29738;51.234;5.484;2023-04-03T00:38:15;8.50;;;4.70;;
44068;SDS011;29738;51.234;5.484;2023-04-03T00:40:43;8.57;;;4.60;;
44068;SDS011;29738;51.234;5.484;2023-04-03T00:43:11;10.00;;;5.03;;
44068;SDS011;29738;51.234;5.484;2023-04-03T00:45:42;9.55;;;4.82;;
44068;SDS011;29738;51.234;5.484;2023-04-03T00:48:11;8.38;;;4.22;;
44068;SDS011;29738;51.234;5.484;2023-04-03T00:53:11;7.68;;;3.95;;
44068;SDS011;29738;51.234;5.484;2023-04-03T00:55:41;7.80;;;4.55;;
44068;SDS011;29738;51.234;5.484;2023-04-03T00:58:09;8.65;;;5.10;;
44068;SDS011;29738;51.234;5.484;2023-04-03T01:00:37;9.90;;;5.07;;
44068;SDS011;29738;51.234;5.484;2023-04-03T01:03:07;8.70;;;5.03;;
44068;SDS011;29738;51.234;5.484;2023-04-03T01:05:33;12.15;;;5.60;;
44068;SDS011;29738;51.234;5.484;2023-04-03T01:07:59;8.15;;;4.18;;
44068;SDS011;29738;51.234;5.484;2023-04-03T01:10:26;11.55;;;5.53;;
44068;SDS011;29738;51.234;5.484;2023-04-03T01:12:52;8.00;;;4.82;;
44068;SDS011;29738;51.234;5.484;2023-04-03T01:15:22;8.20;;;4.65;;
44068;SDS011;29738;51.234;5.484;2023-04-03T01:17:57;10.18;;;5.15;;
44068;SDS011;29738;51.234;5.484;2023-04-03T01:28:15;9.55;;;5.10;;
44068;SDS011;29738;51.234;5.484;2023-04-03T01:31:12;7.28;;;4.38;;
44068;SDS011;29738;51.234;5.484;2023-04-03T01:33:50;9.48;;;4.32;;
44068;SDS011;29738;51.234;5.484;2023-04-03T01:36:17;9.80;;;4.43;;
44068;SDS011;29738;51.234;5.484;2023-04-03T01:38:49;8.77;;;3.97;;
44068;SDS011;29738;51.234;5.484;2023-04-03T01:41:16;6.90;;;3.90;;
44068;SDS011;29738;51.234;5.484;2023-04-03T01:43:42;7.15;;;3.75;;
44068;SDS011;29738;51.234;5.484;2023-04-03T01:46:09;7.47;;;3.95;;
44068;SDS011;29738;51.234;5.484;2023-04-03T01:48:35;8.18;;;4.60;;
44068;SDS011;29738;51.234;5.484;2023-04-03T01:51:01;6.90;;;3.83;;
44068;SDS011;29738;51.234;5.484;2023-04-03T01:53:27;7.30;;;4.30;;
44068;SDS011;29738;51.234;5.484;2023-04-03T01:55:53;7.65;;;4.55;;
44068;SDS011;29738;51.234;5.484;2023-04-03T01:58:19;8.50;;;4.38;;
44068;SDS011;29738;51.234;5.484;2023-04-03T02:00:45;10.32;;;4.13;;
44068;SDS011;29738;51.234;5.484;2023-04-03T02:03:11;7.20;;;4.22;;
44068;SDS011;29738;51.234;5.484;2023-04-03T02:05:37;9.38;;;4.95;;
44068;SDS011;29738;51.234;5.484;2023-04-03T02:08:03;12.23;;;4.25;;
44068;SDS011;29738;51.234;5.484;2023-04-03T02:10:29;7.82;;;4.70;;
44068;SDS011;29738;51.234;5.484;2023-04-03T02:12:55;9.15;;;5.22;;
44068;SDS011;29738;51.234;5.484;2023-04-03T02:15:21;8.82;;;4.72;;
44068;SDS011;29738;51.234;5.484;2023-04-03T02:17:47;10.25;;;4.75;;
44068;SDS011;29738;51.234;5.484;2023-04-03T02:20:13;11.30;;;5.07;;
44068;SDS011;29738;51.234;5.484;2023-04-03T02:22:39;7.75;;;4.43;;
44068;SDS011;29738;51.234;5.484;2023-04-03T02:25:05;9.18;;;5.35;;
44068;SDS011;29738;51.234;5.484;2023-04-03T02:27:31;10.07;;;5.47;;
44068;SDS011;29738;51.234;5.484;2023-04-03T02:29:57;8.10;;;5.07;;
44068;SDS011;29738;51.234;5.484;2023-04-03T02:32:23;9.80;;;5.13;;
44068;SDS011;29738;51.234;5.484;2023-04-03T02:34:49;9.10;;;4.40;;
44068;SDS011;29738;51.234;5.484;2023-04-03T02:37:15;9.48;;;4.88;;
44068;SDS011;29738;51.234;5.484;2023-04-03T02:39:41;10.45;;;5.15;;
44068;SDS011;29738;51.234;5.484;2023-04-03T02:42:07;12.23;;;6.15;;
44068;SDS011;29738;51.234;5.484;2023-04-03T02:44:33;11.50;;;5.57;;
44068;SDS011;29738;51.234;5.484;2023-04-03T02:46:59;8.63;;;4.50;;
44068;SDS011;29738;51.234;5.484;2023-04-03T02:49:25;9.45;;;5.57;;
44068;SDS011;29738;51.234;5.484;2023-04-03T02:51:51;8.85;;;5.18;;
44068;SDS011;29738;51.234;5.484;2023-04-03T02:54:17;9.63;;;5.85;;
44068;SDS011;29738;51.234;5.484;2023-04-03T02:56:43;11.88;;;6.00;;
44068;SDS011;29738;51.234;5.484;2023-04-03T02:59:09;8.80;;;5.28;;
44068;SDS011;29738;51.234;5.484;2023-04-03T03:01:35;11.77;;;5.57;;
44068;SDS011;29738;51.234;5.484;2023-04-03T03:04:01;11.55;;;6.78;;
44068;SDS011;29738;51.234;5.484;2023-04-03T03:06:27;12.80;;;6.05;;
44068;SDS011;29738;51.234;5.484;2023-04-03T03:08:53;10.02;;;5.80;;
44068;SDS011;29738;51.234;5.484;2023-04-03T03:11:19;9.57;;;6.22;;
44068;SDS011;29738;51.234;5.484;2023-04-03T03:13:45;10.95;;;5.80;;
44068;SDS011;29738;51.234;5.484;2023-04-03T03:16:11;13.50;;;6.13;;
44068;SDS011;29738;51.234;5.484;2023-04-03T03:18:36;9.85;;;5.57;;
44068;SDS011;29738;51.234;5.484;2023-04-03T03:21:03;9.10;;;5.68;;
44068;SDS011;29738;51.234;5.484;2023-04-03T03:23:30;15.23;;;7.28;;
44068;SDS011;29738;51.234;5.484;2023-04-03T03:25:58;11.43;;;6.25;;
44068;SDS011;29738;51.234;5.484;2023-04-03T03:28:26;9.35;;;5.88;;
44068;SDS011;29738;51.234;5.484;2023-04-03T03:30:52;9.75;;;5.97;;
44068;SDS011;29738;51.234;5.484;2023-04-03T03:33:18;12.75;;;6.97;;
44068;SDS011;29738;51.234;5.484;2023-04-03T03:35:44;9.25;;;5.40;;
44068;SDS011;29738;51.234;5.484;2023-04-03T03:38:11;9.50;;;6.65;;
44068;SDS011;29738;51.234;5.484;2023-04-03T03:40:37;11.70;;;6.05;;
44068;SDS011;29738;51.234;5.484;2023-04-03T03:43:03;8.98;;;5.70;;
44068;SDS011;29738;51.234;5.484;2023-04-03T03:45:30;12.88;;;6.35;;
44068;SDS011;29738;51.234;5.484;2023-04-03T03:47:56;11.85;;;6.78;;
44068;SDS011;29738;51.234;5.484;2023-04-03T03:50:22;8.63;;;5.32;;
44068;SDS011;29738;51.234;5.484;2023-04-03T03:52:48;12.95;;;7.13;;
44068;SDS011;29738;51.234;5.484;2023-04-03T03:55:14;8.57;;;5.55;;
44068;SDS011;29738;51.234;5.484;2023-04-03T03:57:40;10.57;;;5.60;;
44068;SDS011;29738;51.234;5.484;2023-04-03T04:00:06;10.30;;;5.90;;
44068;SDS011;29738;51.234;5.484;2023-04-03T04:02:33;12.07;;;6.32;;
44068;SDS011;29738;51.234;5.484;2023-04-03T04:04:59;12.20;;;5.75;;
44068;SDS011;29738;51.234;5.484;2023-04-03T04:07:25;13.63;;;5.68;;
44068;SDS011;29738;51.234;5.484;2023-04-03T04:09:53;11.57;;;6.55;;
44068;SDS011;29738;51.234;5.484;2023-04-03T04:12:19;8.93;;;4.97;;
44068;SDS011;29738;51.234;5.484;2023-04-03T04:14:45;10.60;;;5.90;;
44068;SDS011;29738;51.234;5.484;2023-04-03T04:17:12;10.65;;;6.47;;
44068;SDS011;29738;51.234;5.484;2023-04-03T04:19:38;8.38;;;5.35;;
44068;SDS011;29738;51.234;5.484;2023-04-03T04:22:04;13.68;;;5.97;;
44068;SDS011;29738;51.234;5.484;2023-04-03T04:24:30;9.52;;;6.03;;
44068;SDS011;29738;51.234;5.484;2023-04-03T04:26:56;10.32;;;5.57;;
44068;SDS011;29738;51.234;5.484;2023-04-03T04:29:22;10.02;;;6.38;;
44068;SDS011;29738;51.234;5.484;2023-04-03T04:31:48;8.60;;;5.22;;
44068;SDS011;29738;51.234;5.484;2023-04-03T04:34:14;13.23;;;6.75;;
44068;SDS011;29738;51.234;5.484;2023-04-03T04:36:40;7.38;;;4.85;;
44068;SDS011;29738;51.234;5.484;2023-04-03T04:39:06;12.90;;;6.13;;
44068;SDS011;29738;51.234;5.484;2023-04-03T04:41:32;9.00;;;5.55;;
44068;SDS011;29738;51.234;5.484;2023-04-03T04:43:59;8.35;;;5.35;;
44068;SDS011;29738;51.234;5.484;2023-04-03T04:46:25;8.40;;;5.47;;
44068;SDS011;29738;51.234;5.484;2023-04-03T04:48:52;10.43;;;6.60;;
44068;SDS011;29738;51.234;5.484;2023-04-03T04:51:18;11.88;;;6.80;;
44068;SDS011;29738;51.234;5.484;2023-04-03T04:53:43;13.18;;;6.97;;
44068;SDS011;29738;51.234;5.484;2023-04-03T04:56:10;10.60;;;6.40;;
44068;SDS011;29738;51.234;5.484;2023-04-03T04:58:36;10.63;;;5.60;;
44068;SDS011;29738;51.234;5.484;2023-04-03T05:01:03;11.30;;;4.60;;
44068;SDS011;29738;51.234;5.484;2023-04-03T05:03:30;15.93;;;5.50;;
44068;SDS011;29738;51.234;5.484;2023-04-03T05:05:56;8.43;;;4.82;;
44068;SDS011;29738;51.234;5.484;2023-04-03T05:08:22;9.18;;;5.15;;
44068;SDS011;29738;51.234;5.484;2023-04-03T05:10:48;8.90;;;5.75;;
44068;SDS011;29738;51.234;5.484;2023-04-03T05:13:14;8.25;;;5.18;;
44068;SDS011;29738;51.234;5.484;2023-04-03T05:15:40;8.90;;;5.10;;
44068;SDS011;29738;51.234;5.484;2023-04-03T05:18:06;10.43;;;6.07;;
44068;SDS011;29738;51.234;5.484;2023-04-03T05:20:32;7.35;;;4.95;;
44068;SDS011;29738;51.234;5.484;2023-04-03T05:22:59;7.97;;;4.80;;
44068;SDS011;29738;51.234;5.484;2023-04-03T05:25:25;9.35;;;6.15;;
44068;SDS011;29738;51.234;5.484;2023-04-03T05:27:51;6.30;;;3.72;;
44068;SDS011;29738;51.234;5.484;2023-04-03T05:30:17;7.05;;;4.32;;
44068;SDS011;29738;51.234;5.484;2023-04-03T05:32:43;11.27;;;5.63;;
44068;SDS011;29738;51.234;5.484;2023-04-03T05:35:09;6.70;;;4.30;;
44068;SDS011;29738;51.234;5.484;2023-04-03T05:37:35;4.90;;;3.28;;
44068;SDS011;29738;51.234;5.484;2023-04-03T05:40:02;5.15;;;2.75;;
44068;SDS011;29738;51.234;5.484;2023-04-03T05:42:29;6.72;;;4.15;;
44068;SDS011;29738;51.234;5.484;2023-04-03T05:44:55;9.02;;;5.05;;
44068;SDS011;29738;51.234;5.484;2023-04-03T05:47:21;10.27;;;5.70;;
44068;SDS011;29738;51.234;5.484;2023-04-03T05:49:47;5.63;;;2.63;;
44068;SDS011;29738;51.234;5.484;2023-04-03T05:52:20;5.35;;;3.42;;
44068;SDS011;29738;51.234;5.484;2023-04-03T05:54:47;7.28;;;2.67;;
44068;SDS011;29738;51.234;5.484;2023-04-03T05:57:13;8.85;;;3.33;;
44068;SDS011;29738;51.234;5.484;2023-04-03T05:59:41;7.82;;;4.07;;
44068;SDS011;29738;51.234;5.484;2023-04-03T06:02:18;7.38;;;4.40;;
44068;SDS011;29738;51.234;5.484;2023-04-03T06:04:47;5.30;;;3.45;;
44068;SDS011;29738;51.234;5.484;2023-04-03T06:07:18;8.10;;;3.88;;
44068;SDS011;29738;51.234;5.484;2023-04-03T06:09:49;5.75;;;1.92;;
44068;SDS011;29738;51.234;5.484;2023-04-03T06:12:19;6.45;;;3.28;;
44068;SDS011;29738;51.234;5.484;2023-04-03T06:14:45;5.70;;;3.08;;
44068;SDS011;29738;51.234;5.484;2023-04-03T06:17:11;3.13;;;2.05;;
44068;SDS011;29738;51.234;5.484;2023-04-03T06:19:38;6.00;;;2.72;;
44068;SDS011;29738;51.234;5.484;2023-04-03T06:22:04;2.70;;;1.98;;
44068;SDS011;29738;51.234;5.484;2023-04-03T06:24:30;10.45;;;4.90;;
44068;SDS011;29738;51.234;5.484;2023-04-03T06:26:57;6.40;;;3.00;;
44068;SDS011;29738;51.234;5.484;2023-04-03T06:29:23;6.90;;;4.20;;
44068;SDS011;29738;51.234;5.484;2023-04-03T06:31:50;9.27;;;3.92;;
44068;SDS011;29738;51.234;5.484;2023-04-03T06:34:16;6.38;;;2.63;;
44068;SDS011;29738;51.234;5.484;2023-04-03T06:36:43;6.63;;;3.17;;
44068;SDS011;29738;51.234;5.484;2023-04-03T06:39:13;6.05;;;2.85;;
44068;SDS011;29738;51.234;5.484;2023-04-03T06:41:41;7.32;;;3.75;;
44068;SDS011;29738;51.234;5.484;2023-04-03T06:44:07;2.92;;;1.85;;
44068;SDS011;29738;51.234;5.484;2023-04-03T06:46:36;7.78;;;3.55;;
44068;SDS011;29738;51.234;5.484;2023-04-03T06:49:03;2.20;;;1.20;;
44068;SDS011;29738;51.234;5.484;2023-04-03T06:51:32;5.93;;;3.40;;
44068;SDS011;29738;51.234;5.484;2023-04-03T06:53:58;2.90;;;1.90;;
44068;SDS011;29738;51.234;5.484;2023-04-03T06:56:25;5.13;;;1.70;;
44068;SDS011;29738;51.234;5.484;2023-04-03T06:58:52;10.43;;;4.10;;
44068;SDS011;29738;51.234;5.484;2023-04-03T07:01:20;3.90;;;2.03;;
44068;SDS011;29738;51.234;5.484;2023-04-03T07:03:47;2.25;;;0.95;;
44068;SDS011;29738;51.234;5.484;2023-04-03T07:06:14;5.95;;;3.00;;
44068;SDS011;29738;51.234;5.484;2023-04-03T07:08:41;5.07;;;2.65;;
44068;SDS011;29738;51.234;5.484;2023-04-03T07:11:08;9.98;;;3.85;;
44068;SDS011;29738;51.234;5.484;2023-04-03T07:13:35;8.20;;;3.47;;
44068;SDS011;29738;51.234;5.484;2023-04-03T07:16:01;9.18;;;3.72;;
44068;SDS011;29738;51.234;5.484;2023-04-03T07:18:29;2.45;;;1.70;;
44068;SDS011;29738;51.234;5.484;2023-04-03T07:20:55;8.15;;;2.92;;
44068;SDS011;29738;51.234;5.484;2023-04-03T07:23:21;7.32;;;3.30;;
44068;SDS011;29738;51.234;5.484;2023-04-03T07:25:47;5.43;;;3.25;;
44068;SDS011;29738;51.234;5.484;2023-04-03T07:28:15;8.88;;;2.67;;
44068;SDS011;29738;51.234;5.484;2023-04-03T07:30:45;6.22;;;3.25;;
44068;SDS011;29738;51.234;5.484;2023-04-03T07:33:13;5.10;;;3.05;;
44068;SDS011;29738;51.234;5.484;2023-04-03T07:35:41;6.53;;;3.20;;
44068;SDS011;29738;51.234;5.484;2023-04-03T07:38:08;7.82;;;3.58;;
44068;SDS011;29738;51.234;5.484;2023-04-03T07:40:34;5.55;;;2.90;;
44068;SDS011;29738;51.234;5.484;2023-04-03T07:43:01;6.78;;;3.17;;
44068;SDS011;29738;51.234;5.484;2023-04-03T07:45:27;10.07;;;2.72;;
44068;SDS011;29738;51.234;5.484;2023-04-03T07:47:53;7.80;;;3.15;;
44068;SDS011;29738;51.234;5.484;2023-04-03T07:50:20;4.72;;;2.45;;
44068;SDS011;29738;51.234;5.484;2023-04-03T07:52:46;10.75;;;3.90;;
44068;SDS011;29738;51.234;5.484;2023-04-03T07:55:12;5.65;;;2.50;;
44068;SDS011;29738;51.234;5.484;2023-04-03T07:57:38;7.88;;;2.20;;
44068;SDS011;29738;51.234;5.484;2023-04-03T08:00:05;6.10;;;2.17;;
44068;SDS011;29738;51.234;5.484;2023-04-03T08:02:32;5.00;;;2.85;;
44068;SDS011;29738;51.234;5.484;2023-04-03T08:04:58;5.95;;;3.03;;
44068;SDS011;29738;51.234;5.484;2023-04-03T08:07:24;6.38;;;2.80;;
44068;SDS011;29738;51.234;5.484;2023-04-03T08:09:51;6.25;;;2.70;;
44068;SDS011;29738;51.234;5.484;2023-04-03T08:12:17;10.93;;;3.38;;
44068;SDS011;29738;51.234;5.484;2023-04-03T08:14:43;2.30;;;1.50;;
44068;SDS011;29738;51.234;5.484;2023-04-03T08:17:09;2.08;;;1.25;;
44068;SDS011;29738;51.234;5.484;2023-04-03T08:19:39;8.38;;;3.38;;
44068;SDS011;29738;51.234;5.484;2023-04-03T08:22:06;5.63;;;2.05;;
44068;SDS011;29738;51.234;5.484;2023-04-03T08:24:35;5.90;;;2.90;;
44068;SDS011;29738;51.234;5.484;2023-04-03T08:27:01;4.43;;;2.10;;
44068;SDS011;29738;51.234;5.484;2023-04-03T08:29:27;6.80;;;2.78;;
44068;SDS011;29738;51.234;5.484;2023-04-03T08:31:53;4.05;;;1.92;;
44068;SDS011;29738;51.234;5.484;2023-04-03T08:34:19;11.07;;;2.55;;
44068;SDS011;29738;51.234;5.484;2023-04-03T08:36:46;6.60;;;2.25;;
44068;SDS011;29738;51.234;5.484;2023-04-03T08:39:12;6.22;;;2.05;;
44068;SDS011;29738;51.234;5.484;2023-04-03T08:41:39;3.97;;;1.65;;
44068;SDS011;29738;51.234;5.484;2023-04-03T08:44:12;4.10;;;1.75;;
44068;SDS011;29738;51.234;5.484;2023-04-03T08:46:56;3.47;;;1.83;;
44068;SDS011;29738;51.234;5.484;2023-04-03T08:49:39;3.88;;;1.85;;
44068;SDS011;29738;51.234;5.484;2023-04-03T08:52:17;5.65;;;2.03;;
44068;SDS011;29738;51.234;5.484;2023-04-03T08:54:52;3.28;;;1.35;;
44068;SDS011;29738;51.234;5.484;2023-04-03T08:57:26;4.32;;;1.77;;
44068;SDS011;29738;51.234;5.484;2023-04-03T09:00:22;3.63;;;2.17;;
44068;SDS011;29738;51.234;5.484;2023-04-03T09:02:51;6.60;;;2.00;;
44068;SDS011;29738;51.234;5.484;2023-04-03T09:10:48;4.40;;;1.60;;
44068;SDS011;29738;51.234;5.484;2023-04-03T09:15:56;3.03;;;1.38;;
44068;SDS011;29738;51.234;5.484;2023-04-03T09:18:23;2.25;;;1.15;;
44068;SDS011;29738;51.234;5.484;2023-04-03T09:23:50;3.47;;;1.40;;
44068;SDS011;29738;51.234;5.484;2023-04-03T09:26:26;1.88;;;1.63;;
44068;SDS011;29738;51.234;5.484;2023-04-03T09:29:00;4.63;;;1.67;;
44068;SDS011;29738;51.234;5.484;2023-04-03T09:31:32;3.08;;;1.23;;
44068;SDS011;29738;51.234;5.484;2023-04-03T09:34:04;2.92;;;1.33;;
